sensor_id;sensor_type;location;lat;lon;timestamp;temperature;humidity
7002;DHT22;3541;53.230;10.518;2023-05-07T00:01:00;10.30;99.90
7002;DHT22;3541;53.230;10.518;2023-05-07T00:03:29;10.10;99.90
7002;DHT22;3541;53.230;10.518;2023-05-07T00:05:55;10.00;99.90
7002;DHT22;3541;53.230;10.518;2023-05-07T00:08:22;10.00;99.90
7002;DHT22;3541;53.230;10.518;2023-05-07T00:10:48;10.10;99.90
7002;DHT22;3541;53.230;10.518;2023-05-07T00:13:15;10.10;99.90
7002;DHT22;3541;53.230;10.518;2023-05-07T00:15:42;10.00;99.90
7002;DHT22;3541;53.230;10.518;2023-05-07T00:18:08;9.90;99.90
7002;DHT22;3541;53.230;10.518;2023-05-07T00:20:36;9.90;99.90
7002;DHT22;3541;53.230;10.518;2023-05-07T00:23:03;10.10;99.90
7002;DHT22;3541;53.230;10.518;2023-05-07T00:25:29;10.20;99.90
7002;DHT22;3541;53.230;10.518;2023-05-07T00:27:56;10.20;99.90
7002;DHT22;3541;53.230;10.518;2023-05-07T00:30:22;10.20;99.90
7002;DHT22;3541;53.230;10.518;2023-05-07T00:32:49;10.20;99.90
7002;DHT22;3541;53.230;10.518;2023-05-07T00:35:16;10.20;99.90
7002;DHT22;3541;53.230;10.518;2023-05-07T00:37:44;10.20;99.90
7002;DHT22;3541;53.230;10.518;2023-05-07T00:40:10;10.30;99.90
7002;DHT22;3541;53.230;10.518;2023-05-07T00:42:38;10.40;99.90
7002;DHT22;3541;53.230;10.518;2023-05-07T00:45:05;10.40;99.90
7002;DHT22;3541;53.230;10.518;2023-05-07T00:47:33;10.30;99.90
7002;DHT22;3541;53.230;10.518;2023-05-07T00:49:59;10.30;99.90
7002;DHT22;3541;53.230;10.518;2023-05-07T00:52:26;10.20;99.90
7002;DHT22;3541;53.230;10.518;2023-05-07T00:54:55;10.30;99.90
7002;DHT22;3541;53.230;10.518;2023-05-07T00:57:24;10.30;99.90
7002;DHT22;3541;53.230;10.518;2023-05-07T00:59:51;10.10;99.90
7002;DHT22;3541;53.230;10.518;2023-05-07T01:02:18;10.10;99.90
7002;DHT22;3541;53.230;10.518;2023-05-07T01:04:44;10.10;99.90
7002;DHT22;3541;53.230;10.518;2023-05-07T01:07:11;10.20;99.90
7002;DHT22;3541;53.230;10.518;2023-05-07T01:09:38;10.10;99.90
7002;DHT22;3541;53.230;10.518;2023-05-07T01:12:06;10.10;99.90
7002;DHT22;3541;53.230;10.518;2023-05-07T01:14:34;10.10;99.90
7002;DHT22;3541;53.230;10.518;2023-05-07T01:17:00;10.10;99.90
7002;DHT22;3541;53.230;10.518;2023-05-07T01:19:29;10.20;99.90
7002;DHT22;3541;53.230;10.518;2023-05-07T01:22:02;10.00;99.90
7002;DHT22;3541;53.230;10.518;2023-05-07T01:24:31;9.90;99.90
7002;DHT22;3541;53.230;10.518;2023-05-07T01:26:58;10.00;99.90
7002;DHT22;3541;53.230;10.518;2023-05-07T01:29:24;10.00;99.90
7002;DHT22;3541;53.230;10.518;2023-05-07T01:31:52;10.10;99.90
7002;DHT22;3541;53.230;10.518;2023-05-07T01:34:20;10.00;99.90
7002;DHT22;3541;53.230;10.518;2023-05-07T01:36:48;10.00;99.90
7002;DHT22;3541;53.230;10.518;2023-05-07T01:39:15;10.00;99.90
7002;DHT22;3541;53.230;10.518;2023-05-07T01:41:43;9.90;99.90
7002;DHT22;3541;53.230;10.518;2023-05-07T01:44:12;9.90;99.90
7002;DHT22;3541;53.230;10.518;2023-05-07T01:46:39;9.80;99.90
7002;DHT22;3541;53.230;10.518;2023-05-07T01:49:06;9.90;99.90
7002;DHT22;3541;53.230;10.518;2023-05-07T01:51:33;9.90;99.90
7002;DHT22;3541;53.230;10.518;2023-05-07T01:54:00;9.80;99.90
7002;DHT22;3541;53.230;10.518;2023-05-07T01:56:27;9.80;99.90
7002;DHT22;3541;53.230;10.518;2023-05-07T01:58:54;9.80;99.90
7002;DHT22;3541;53.230;10.518;2023-05-07T02:01:21;9.90;99.90
7002;DHT22;3541;53.230;10.518;2023-05-07T02:03:48;9.90;99.90
7002;DHT22;3541;53.230;10.518;2023-05-07T02:06:15;10.00;99.90
7002;DHT22;3541;53.230;10.518;2023-05-07T02:08:41;10.00;99.90
7002;DHT22;3541;53.230;10.518;2023-05-07T02:11:08;9.90;99.90
7002;DHT22;3541;53.230;10.518;2023-05-07T02:13:34;9.90;99.90
7002;DHT22;3541;53.230;10.518;2023-05-07T02:16:03;9.90;99.90
7002;DHT22;3541;53.230;10.518;2023-05-07T02:18:29;10.00;99.90
7002;DHT22;3541;53.230;10.518;2023-05-07T02:20:57;9.90;99.90
7002;DHT22;3541;53.230;10.518;2023-05-07T02:23:24;9.80;99.90
7002;DHT22;3541;53.230;10.518;2023-05-07T02:25:51;9.80;99.90
7002;DHT22;3541;53.230;10.518;2023-05-07T02:28:17;9.90;99.90
7002;DHT22;3541;53.230;10.518;2023-05-07T02:30:44;9.80;99.90
7002;DHT22;3541;53.230;10.518;2023-05-07T02:33:12;9.80;99.90
7002;DHT22;3541;53.230;10.518;2023-05-07T02:35:39;9.90;99.90
7002;DHT22;3541;53.230;10.518;2023-05-07T02:38:05;9.80;99.90
7002;DHT22;3541;53.230;10.518;2023-05-07T02:40:32;9.90;99.90
7002;DHT22;3541;53.230;10.518;2023-05-07T02:43:04;9.80;99.90
7002;DHT22;3541;53.230;10.518;2023-05-07T02:45:30;9.80;99.90
7002;DHT22;3541;53.230;10.518;2023-05-07T02:47:57;9.90;99.90
7002;DHT22;3541;53.230;10.518;2023-05-07T02:50:25;9.80;99.90
7002;DHT22;3541;53.230;10.518;2023-05-07T02:52:52;9.70;99.90
7002;DHT22;3541;53.230;10.518;2023-05-07T02:55:18;9.80;99.90
7002;DHT22;3541;53.230;10.518;2023-05-07T02:57:45;9.80;99.90
7002;DHT22;3541;53.230;10.518;2023-05-07T03:00:13;9.80;99.90
7002;DHT22;3541;53.230;10.518;2023-05-07T03:02:40;9.90;99.90
7002;DHT22;3541;53.230;10.518;2023-05-07T03:05:07;9.90;99.90
7002;DHT22;3541;53.230;10.518;2023-05-07T03:07:35;9.80;99.90
7002;DHT22;3541;53.230;10.518;2023-05-07T03:10:02;9.70;99.90
7002;DHT22;3541;53.230;10.518;2023-05-07T03:12:29;9.80;99.90
7002;DHT22;3541;53.230;10.518;2023-05-07T03:14:56;9.80;99.90
7002;DHT22;3541;53.230;10.518;2023-05-07T03:17:23;9.90;99.90
7002;DHT22;3541;53.230;10.518;2023-05-07T03:19:49;9.80;99.90
7002;DHT22;3541;53.230;10.518;2023-05-07T03:22:16;9.90;99.90
7002;DHT22;3541;53.230;10.518;2023-05-07T03:24:44;9.90;99.90
7002;DHT22;3541;53.230;10.518;2023-05-07T03:27:10;9.90;99.90
7002;DHT22;3541;53.230;10.518;2023-05-07T03:29:37;10.00;99.90
7002;DHT22;3541;53.230;10.518;2023-05-07T03:32:04;10.00;99.90
7002;DHT22;3541;53.230;10.518;2023-05-07T03:34:31;10.00;99.90
7002;DHT22;3541;53.230;10.518;2023-05-07T03:36:57;9.90;99.90
7002;DHT22;3541;53.230;10.518;2023-05-07T03:39:24;9.90;99.90
7002;DHT22;3541;53.230;10.518;2023-05-07T03:41:51;9.70;99.90
7002;DHT22;3541;53.230;10.518;2023-05-07T03:44:18;9.70;99.90
7002;DHT22;3541;53.230;10.518;2023-05-07T03:46:45;9.80;99.90
7002;DHT22;3541;53.230;10.518;2023-05-07T03:49:11;9.70;99.90
7002;DHT22;3541;53.230;10.518;2023-05-07T03:51:38;9.80;99.90
7002;DHT22;3541;53.230;10.518;2023-05-07T03:54:04;9.80;99.90
7002;DHT22;3541;53.230;10.518;2023-05-07T03:56:31;9.80;99.90
7002;DHT22;3541;53.230;10.518;2023-05-07T03:59:00;9.80;99.90
7002;DHT22;3541;53.230;10.518;2023-05-07T04:01:26;9.70;99.90
7002;DHT22;3541;53.230;10.518;2023-05-07T04:03:53;9.70;99.90
7002;DHT22;3541;53.230;10.518;2023-05-07T04:06:20;9.70;99.90
7002;DHT22;3541;53.230;10.518;2023-05-07T04:08:46;9.70;99.90
7002;DHT22;3541;53.230;10.518;2023-05-07T04:11:13;9.80;99.90
7002;DHT22;3541;53.230;10.518;2023-05-07T04:13:39;9.80;99.90
7002;DHT22;3541;53.230;10.518;2023-05-07T04:16:07;9.90;99.90
7002;DHT22;3541;53.230;10.518;2023-05-07T04:18:34;9.90;99.90
7002;DHT22;3541;53.230;10.518;2023-05-07T04:21:00;9.90;99.90
7002;DHT22;3541;53.230;10.518;2023-05-07T04:23:27;9.90;99.90
7002;DHT22;3541;53.230;10.518;2023-05-07T04:25:54;10.00;99.90
7002;DHT22;3541;53.230;10.518;2023-05-07T04:28:20;10.00;99.90
7002;DHT22;3541;53.230;10.518;2023-05-07T04:30:47;9.90;99.90
7002;DHT22;3541;53.230;10.518;2023-05-07T04:33:15;9.90;99.90
7002;DHT22;3541;53.230;10.518;2023-05-07T04:35:42;10.00;99.90
7002;DHT22;3541;53.230;10.518;2023-05-07T04:38:09;10.00;99.90
7002;DHT22;3541;53.230;10.518;2023-05-07T04:40:36;10.00;99.90
7002;DHT22;3541;53.230;10.518;2023-05-07T04:43:03;10.00;99.90
7002;DHT22;3541;53.230;10.518;2023-05-07T04:45:30;9.90;99.90
7002;DHT22;3541;53.230;10.518;2023-05-07T04:47:56;9.80;99.90
7002;DHT22;3541;53.230;10.518;2023-05-07T04:50:24;9.90;99.90
7002;DHT22;3541;53.230;10.518;2023-05-07T04:52:51;9.90;99.90
7002;DHT22;3541;53.230;10.518;2023-05-07T04:55:17;9.90;99.90
7002;DHT22;3541;53.230;10.518;2023-05-07T04:57:44;9.90;99.90
7002;DHT22;3541;53.230;10.518;2023-05-07T05:00:12;9.80;99.90
7002;DHT22;3541;53.230;10.518;2023-05-07T05:02:39;9.70;99.90
7002;DHT22;3541;53.230;10.518;2023-05-07T05:05:06;9.70;99.90
7002;DHT22;3541;53.230;10.518;2023-05-07T05:07:34;9.90;99.90
7002;DHT22;3541;53.230;10.518;2023-05-07T05:10:02;10.00;99.90
7002;DHT22;3541;53.230;10.518;2023-05-07T05:12:29;9.90;99.90
7002;DHT22;3541;53.230;10.518;2023-05-07T05:14:55;10.00;99.90
7002;DHT22;3541;53.230;10.518;2023-05-07T05:17:22;10.00;99.90
7002;DHT22;3541;53.230;10.518;2023-05-07T05:19:49;9.80;99.90
7002;DHT22;3541;53.230;10.518;2023-05-07T05:22:16;9.90;99.90
7002;DHT22;3541;53.230;10.518;2023-05-07T05:24:44;10.00;99.90
7002;DHT22;3541;53.230;10.518;2023-05-07T05:27:10;10.00;99.90
7002;DHT22;3541;53.230;10.518;2023-05-07T05:29:37;10.00;99.90
7002;DHT22;3541;53.230;10.518;2023-05-07T05:32:03;10.00;99.90
7002;DHT22;3541;53.230;10.518;2023-05-07T05:34:30;9.80;99.90
7002;DHT22;3541;53.230;10.518;2023-05-07T05:36:58;9.90;99.90
7002;DHT22;3541;53.230;10.518;2023-05-07T05:39:25;10.00;99.90
7002;DHT22;3541;53.230;10.518;2023-05-07T05:41:53;10.00;99.90
7002;DHT22;3541;53.230;10.518;2023-05-07T05:44:20;9.90;99.90
7002;DHT22;3541;53.230;10.518;2023-05-07T05:46:46;9.90;99.90
7002;DHT22;3541;53.230;10.518;2023-05-07T05:49:15;9.90;99.90
7002;DHT22;3541;53.230;10.518;2023-05-07T05:51:41;9.90;99.90
7002;DHT22;3541;53.230;10.518;2023-05-07T05:54:08;9.90;99.90
7002;DHT22;3541;53.230;10.518;2023-05-07T05:56:34;9.90;99.90
7002;DHT22;3541;53.230;10.518;2023-05-07T05:59:02;9.90;99.90
7002;DHT22;3541;53.230;10.518;2023-05-07T06:01:29;9.90;99.90
7002;DHT22;3541;53.230;10.518;2023-05-07T06:03:56;9.90;99.90
7002;DHT22;3541;53.230;10.518;2023-05-07T06:06:22;9.90;99.90
7002;DHT22;3541;53.230;10.518;2023-05-07T06:08:49;9.90;99.90
7002;DHT22;3541;53.230;10.518;2023-05-07T06:11:15;10.00;99.90
7002;DHT22;3541;53.230;10.518;2023-05-07T06:13:42;10.00;99.90
7002;DHT22;3541;53.230;10.518;2023-05-07T06:16:10;10.10;99.90
7002;DHT22;3541;53.230;10.518;2023-05-07T06:18:36;10.20;99.90
7002;DHT22;3541;53.230;10.518;2023-05-07T06:21:03;10.10;99.90
7002;DHT22;3541;53.230;10.518;2023-05-07T06:23:30;10.10;99.90
7002;DHT22;3541;53.230;10.518;2023-05-07T06:25:57;10.10;99.90
7002;DHT22;3541;53.230;10.518;2023-05-07T06:28:23;9.90;99.90
7002;DHT22;3541;53.230;10.518;2023-05-07T06:30:50;10.00;99.90
7002;DHT22;3541;53.230;10.518;2023-05-07T06:33:18;10.00;99.90
7002;DHT22;3541;53.230;10.518;2023-05-07T06:35:45;10.00;99.90
7002;DHT22;3541;53.230;10.518;2023-05-07T06:38:11;10.10;99.90
7002;DHT22;3541;53.230;10.518;2023-05-07T06:40:38;10.20;99.90
7002;DHT22;3541;53.230;10.518;2023-05-07T06:43:04;10.20;99.90
7002;DHT22;3541;53.230;10.518;2023-05-07T06:45:31;10.20;99.90
7002;DHT22;3541;53.230;10.518;2023-05-07T06:47:57;10.20;99.90
7002;DHT22;3541;53.230;10.518;2023-05-07T06:50:25;10.20;99.90
7002;DHT22;3541;53.230;10.518;2023-05-07T06:52:52;10.20;99.90
7002;DHT22;3541;53.230;10.518;2023-05-07T06:55:18;10.20;99.90
7002;DHT22;3541;53.230;10.518;2023-05-07T06:57:45;10.30;99.90
7002;DHT22;3541;53.230;10.518;2023-05-07T07:00:12;10.30;99.90
7002;DHT22;3541;53.230;10.518;2023-05-07T07:02:39;10.30;99.90
7002;DHT22;3541;53.230;10.518;2023-05-07T07:05:07;10.30;99.90
7002;DHT22;3541;53.230;10.518;2023-05-07T07:07:35;10.30;99.90
7002;DHT22;3541;53.230;10.518;2023-05-07T07:10:01;10.30;99.90
7002;DHT22;3541;53.230;10.518;2023-05-07T07:12:29;10.20;99.90
7002;DHT22;3541;53.230;10.518;2023-05-07T07:14:56;10.30;99.90
7002;DHT22;3541;53.230;10.518;2023-05-07T07:17:22;10.20;99.90
7002;DHT22;3541;53.230;10.518;2023-05-07T07:19:49;10.20;99.90
7002;DHT22;3541;53.230;10.518;2023-05-07T07:22:16;10.20;99.90
7002;DHT22;3541;53.230;10.518;2023-05-07T07:24:44;10.30;99.90
7002;DHT22;3541;53.230;10.518;2023-05-07T07:27:10;10.30;99.90
7002;DHT22;3541;53.230;10.518;2023-05-07T07:29:37;10.20;99.90
7002;DHT22;3541;53.230;10.518;2023-05-07T07:32:04;10.30;99.90
7002;DHT22;3541;53.230;10.518;2023-05-07T07:34:30;10.40;99.90
7002;DHT22;3541;53.230;10.518;2023-05-07T07:36:57;10.50;99.90
7002;DHT22;3541;53.230;10.518;2023-05-07T07:39:23;10.40;99.90
7002;DHT22;3541;53.230;10.518;2023-05-07T07:41:51;10.50;99.90
7002;DHT22;3541;53.230;10.518;2023-05-07T07:44:18;10.60;99.90
7002;DHT22;3541;53.230;10.518;2023-05-07T07:46:44;10.60;99.90
7002;DHT22;3541;53.230;10.518;2023-05-07T07:49:11;10.60;99.90
7002;DHT22;3541;53.230;10.518;2023-05-07T07:51:37;10.50;99.90
7002;DHT22;3541;53.230;10.518;2023-05-07T07:54:04;10.50;99.90
7002;DHT22;3541;53.230;10.518;2023-05-07T07:56:32;10.50;99.90
7002;DHT22;3541;53.230;10.518;2023-05-07T07:59:01;10.60;99.90
7002;DHT22;3541;53.230;10.518;2023-05-07T08:01:29;10.70;99.90
7002;DHT22;3541;53.230;10.518;2023-05-07T08:03:56;10.60;99.90
7002;DHT22;3541;53.230;10.518;2023-05-07T08:06:23;10.60;99.90
7002;DHT22;3541;53.230;10.518;2023-05-07T08:08:51;10.60;99.90
7002;DHT22;3541;53.230;10.518;2023-05-07T08:11:17;10.70;99.90
7002;DHT22;3541;53.230;10.518;2023-05-07T08:13:44;10.60;99.90
7002;DHT22;3541;53.230;10.518;2023-05-07T08:16:12;10.70;99.90
7002;DHT22;3541;53.230;10.518;2023-05-07T08:18:38;10.70;99.90
7002;DHT22;3541;53.230;10.518;2023-05-07T08:21:05;10.60;99.90
7002;DHT22;3541;53.230;10.518;2023-05-07T08:23:31;10.60;99.90
7002;DHT22;3541;53.230;10.518;2023-05-07T08:25:59;10.60;99.90
7002;DHT22;3541;53.230;10.518;2023-05-07T08:28:26;10.60;99.90
7002;DHT22;3541;53.230;10.518;2023-05-07T08:30:53;10.60;99.90
7002;DHT22;3541;53.230;10.518;2023-05-07T08:33:23;10.60;99.90
7002;DHT22;3541;53.230;10.518;2023-05-07T08:35:49;10.60;99.90
7002;DHT22;3541;53.230;10.518;2023-05-07T08:38:16;10.80;99.90
7002;DHT22;3541;53.230;10.518;2023-05-07T08:40:42;10.90;99.90
7002;DHT22;3541;53.230;10.518;2023-05-07T08:43:13;10.90;99.90
7002;DHT22;3541;53.230;10.518;2023-05-07T08:45:40;10.90;99.90
7002;DHT22;3541;53.230;10.518;2023-05-07T08:48:09;10.90;99.90
7002;DHT22;3541;53.230;10.518;2023-05-07T08:50:41;11.00;99.90
7002;DHT22;3541;53.230;10.518;2023-05-07T08:53:08;11.00;99.90
7002;DHT22;3541;53.230;10.518;2023-05-07T08:55:35;11.00;99.90
7002;DHT22;3541;53.230;10.518;2023-05-07T08:58:03;11.00;99.90
7002;DHT22;3541;53.230;10.518;2023-05-07T09:00:29;11.00;99.90
7002;DHT22;3541;53.230;10.518;2023-05-07T09:02:56;11.10;99.90
7002;DHT22;3541;53.230;10.518;2023-05-07T09:05:23;11.10;99.90
7002;DHT22;3541;53.230;10.518;2023-05-07T09:07:50;11.10;99.90
7002;DHT22;3541;53.230;10.518;2023-05-07T09:10:17;11.10;99.90
7002;DHT22;3541;53.230;10.518;2023-05-07T09:12:46;11.00;99.90
7002;DHT22;3541;53.230;10.518;2023-05-07T09:15:13;10.90;99.90
7002;DHT22;3541;53.230;10.518;2023-05-07T09:17:39;11.00;99.90
7002;DHT22;3541;53.230;10.518;2023-05-07T09:20:08;11.00;99.90
7002;DHT22;3541;53.230;10.518;2023-05-07T09:22:36;11.10;99.90
7002;DHT22;3541;53.230;10.518;2023-05-07T09:25:06;11.20;99.90
7002;DHT22;3541;53.230;10.518;2023-05-07T09:27:33;11.20;99.90
7002;DHT22;3541;53.230;10.518;2023-05-07T09:30:03;11.20;99.90
7002;DHT22;3541;53.230;10.518;2023-05-07T09:32:29;11.20;99.90
7002;DHT22;3541;53.230;10.518;2023-05-07T09:34:56;11.20;99.90
7002;DHT22;3541;53.230;10.518;2023-05-07T09:37:25;11.30;99.90
7002;DHT22;3541;53.230;10.518;2023-05-07T09:39:52;11.40;99.90
7002;DHT22;3541;53.230;10.518;2023-05-07T09:42:24;11.40;99.90
7002;DHT22;3541;53.230;10.518;2023-05-07T09:44:52;11.40;99.90
7002;DHT22;3541;53.230;10.518;2023-05-07T09:47:19;11.50;99.90
7002;DHT22;3541;53.230;10.518;2023-05-07T09:49:47;11.50;99.90
7002;DHT22;3541;53.230;10.518;2023-05-07T09:52:14;11.70;99.90
7002;DHT22;3541;53.230;10.518;2023-05-07T09:54:43;11.80;99.90
7002;DHT22;3541;53.230;10.518;2023-05-07T09:57:12;11.80;99.90
7002;DHT22;3541;53.230;10.518;2023-05-07T09:59:42;11.70;99.90
7002;DHT22;3541;53.230;10.518;2023-05-07T10:02:10;11.80;99.90
7002;DHT22;3541;53.230;10.518;2023-05-07T10:04:37;11.80;99.90
7002;DHT22;3541;53.230;10.518;2023-05-07T10:07:04;11.90;99.90
7002;DHT22;3541;53.230;10.518;2023-05-07T10:09:32;11.90;99.90
7002;DHT22;3541;53.230;10.518;2023-05-07T10:11:59;11.90;99.90
7002;DHT22;3541;53.230;10.518;2023-05-07T10:14:28;11.80;99.90
7002;DHT22;3541;53.230;10.518;2023-05-07T10:16:56;11.70;99.90
7002;DHT22;3541;53.230;10.518;2023-05-07T10:19:23;11.70;99.90
7002;DHT22;3541;53.230;10.518;2023-05-07T10:21:54;11.80;99.90
7002;DHT22;3541;53.230;10.518;2023-05-07T10:24:25;11.90;99.90
7002;DHT22;3541;53.230;10.518;2023-05-07T10:26:53;11.90;99.90
7002;DHT22;3541;53.230;10.518;2023-05-07T10:29:27;11.90;99.90
7002;DHT22;3541;53.230;10.518;2023-05-07T10:32:06;11.90;99.90
7002;DHT22;3541;53.230;10.518;2023-05-07T10:34:40;12.00;99.90
7002;DHT22;3541;53.230;10.518;2023-05-07T10:37:07;12.00;99.90
7002;DHT22;3541;53.230;10.518;2023-05-07T10:39:35;12.10;99.90
7002;DHT22;3541;53.230;10.518;2023-05-07T10:42:08;12.10;99.90
7002;DHT22;3541;53.230;10.518;2023-05-07T10:44:35;12.20;99.90
7002;DHT22;3541;53.230;10.518;2023-05-07T10:47:11;12.10;99.90
7002;DHT22;3541;53.230;10.518;2023-05-07T10:50:23;12.10;99.90
7002;DHT22;3541;53.230;10.518;2023-05-07T10:53:20;12.10;99.90
7002;DHT22;3541;53.230;10.518;2023-05-07T10:55:47;12.10;99.90
7002;DHT22;3541;53.230;10.518;2023-05-07T10:58:24;12.10;99.90
7002;DHT22;3541;53.230;10.518;2023-05-07T11:00:57;12.20;99.90
7002;DHT22;3541;53.230;10.518;2023-05-07T11:03:24;12.20;99.90
7002;DHT22;3541;53.230;10.518;2023-05-07T11:08:57;12.20;99.90
7002;DHT22;3541;53.230;10.518;2023-05-07T11:11:44;12.50;99.90
7002;DHT22;3541;53.230;10.518;2023-05-07T11:14:11;12.60;99.90
7002;DHT22;3541;53.230;10.518;2023-05-07T11:16:38;12.50;99.90
7002;DHT22;3541;53.230;10.518;2023-05-07T11:19:06;12.50;99.90
7002;DHT22;3541;53.230;10.518;2023-05-07T11:21:34;12.50;99.90
7002;DHT22;3541;53.230;10.518;2023-05-07T11:24:03;12.50;99.90
7002;DHT22;3541;53.230;10.518;2023-05-07T11:26:41;12.50;99.90
7002;DHT22;3541;53.230;10.518;2023-05-07T11:29:11;12.40;99.90
7002;DHT22;3541;53.230;10.518;2023-05-07T11:31:37;12.50;99.90
7002;DHT22;3541;53.230;10.518;2023-05-07T11:34:04;12.60;99.90
7002;DHT22;3541;53.230;10.518;2023-05-07T11:36:32;12.70;99.90
7002;DHT22;3541;53.230;10.518;2023-05-07T11:38:59;12.80;99.90
7002;DHT22;3541;53.230;10.518;2023-05-07T11:41:34;13.00;99.90
7002;DHT22;3541;53.230;10.518;2023-05-07T11:44:02;13.10;99.90
7002;DHT22;3541;53.230;10.518;2023-05-07T11:46:29;13.20;99.90
7002;DHT22;3541;53.230;10.518;2023-05-07T11:48:56;13.30;99.90
7002;DHT22;3541;53.230;10.518;2023-05-07T11:51:24;13.30;99.90
7002;DHT22;3541;53.230;10.518;2023-05-07T11:53:52;13.30;99.90
7002;DHT22;3541;53.230;10.518;2023-05-07T11:56:19;13.40;99.90
7002;DHT22;3541;53.230;10.518;2023-05-07T11:58:48;13.30;99.90
7002;DHT22;3541;53.230;10.518;2023-05-07T12:01:16;13.30;99.90
7002;DHT22;3541;53.230;10.518;2023-05-07T12:03:44;13.30;99.90
7002;DHT22;3541;53.230;10.518;2023-05-07T12:06:12;13.30;99.90
7002;DHT22;3541;53.230;10.518;2023-05-07T12:08:40;13.30;99.90
7002;DHT22;3541;53.230;10.518;2023-05-07T12:11:08;13.30;99.90
7002;DHT22;3541;53.230;10.518;2023-05-07T12:13:37;13.40;99.90
7002;DHT22;3541;53.230;10.518;2023-05-07T12:16:06;13.40;99.90
7002;DHT22;3541;53.230;10.518;2023-05-07T12:18:34;13.40;99.90
7002;DHT22;3541;53.230;10.518;2023-05-07T12:21:01;13.50;99.90
7002;DHT22;3541;53.230;10.518;2023-05-07T12:23:28;13.50;99.90
7002;DHT22;3541;53.230;10.518;2023-05-07T12:25:55;13.60;99.90
7002;DHT22;3541;53.230;10.518;2023-05-07T12:28:22;13.60;99.90
7002;DHT22;3541;53.230;10.518;2023-05-07T12:30:50;13.70;99.90
7002;DHT22;3541;53.230;10.518;2023-05-07T12:33:23;13.70;99.90
7002;DHT22;3541;53.230;10.518;2023-05-07T12:35:50;13.60;99.90
7002;DHT22;3541;53.230;10.518;2023-05-07T12:38:17;13.70;99.90
7002;DHT22;3541;53.230;10.518;2023-05-07T12:40:45;14.00;99.90
7002;DHT22;3541;53.230;10.518;2023-05-07T12:43:16;14.20;99.90
7002;DHT22;3541;53.230;10.518;2023-05-07T12:45:43;14.40;99.90
7002;DHT22;3541;53.230;10.518;2023-05-07T12:48:10;14.60;99.90
7002;DHT22;3541;53.230;10.518;2023-05-07T12:50:38;14.40;99.90
7002;DHT22;3541;53.230;10.518;2023-05-07T12:53:06;14.30;99.90
7002;DHT22;3541;53.230;10.518;2023-05-07T12:55:41;14.30;99.90
7002;DHT22;3541;53.230;10.518;2023-05-07T12:58:08;14.40;99.90
7002;DHT22;3541;53.230;10.518;2023-05-07T13:00:36;14.40;99.90
7002;DHT22;3541;53.230;10.518;2023-05-07T13:03:03;14.60;99.90
7002;DHT22;3541;53.230;10.518;2023-05-07T13:05:30;14.50;99.90
7002;DHT22;3541;53.230;10.518;2023-05-07T13:07:58;14.60;99.90
7002;DHT22;3541;53.230;10.518;2023-05-07T13:10:25;14.80;99.90
7002;DHT22;3541;53.230;10.518;2023-05-07T13:12:52;14.80;99.90
7002;DHT22;3541;53.230;10.518;2023-05-07T13:15:19;14.80;99.90
7002;DHT22;3541;53.230;10.518;2023-05-07T13:17:46;14.90;99.90
7002;DHT22;3541;53.230;10.518;2023-05-07T13:20:12;15.00;99.90
7002;DHT22;3541;53.230;10.518;2023-05-07T13:22:39;15.00;99.90
7002;DHT22;3541;53.230;10.518;2023-05-07T13:25:08;15.20;99.90
7002;DHT22;3541;53.230;10.518;2023-05-07T13:27:35;15.40;99.90
7002;DHT22;3541;53.230;10.518;2023-05-07T13:30:02;15.50;99.90
7002;DHT22;3541;53.230;10.518;2023-05-07T13:32:30;15.70;99.90
7002;DHT22;3541;53.230;10.518;2023-05-07T13:34:56;15.70;99.90
7002;DHT22;3541;53.230;10.518;2023-05-07T13:37:23;15.60;99.90
7002;DHT22;3541;53.230;10.518;2023-05-07T13:39:49;15.60;99.90
7002;DHT22;3541;53.230;10.518;2023-05-07T13:42:17;15.70;99.90
7002;DHT22;3541;53.230;10.518;2023-05-07T13:44:44;16.00;99.90
7002;DHT22;3541;53.230;10.518;2023-05-07T13:47:11;16.30;99.90
7002;DHT22;3541;53.230;10.518;2023-05-07T13:49:38;16.50;99.90
7002;DHT22;3541;53.230;10.518;2023-05-07T13:52:04;16.60;99.90
7002;DHT22;3541;53.230;10.518;2023-05-07T13:54:31;16.80;99.90
7002;DHT22;3541;53.230;10.518;2023-05-07T13:56:57;17.00;99.90
7002;DHT22;3541;53.230;10.518;2023-05-07T13:59:25;17.10;99.90
7002;DHT22;3541;53.230;10.518;2023-05-07T14:01:52;17.20;99.90
7002;DHT22;3541;53.230;10.518;2023-05-07T14:04:20;17.10;99.90
7002;DHT22;3541;53.230;10.518;2023-05-07T14:06:46;16.90;99.90
7002;DHT22;3541;53.230;10.518;2023-05-07T14:09:13;16.80;99.90
7002;DHT22;3541;53.230;10.518;2023-05-07T14:11:39;16.80;99.90
7002;DHT22;3541;53.230;10.518;2023-05-07T14:14:06;16.70;99.90
7002;DHT22;3541;53.230;10.518;2023-05-07T14:16:34;16.60;99.90
7002;DHT22;3541;53.230;10.518;2023-05-07T14:19:00;16.50;99.90
7002;DHT22;3541;53.230;10.518;2023-05-07T14:21:27;16.70;99.90
7002;DHT22;3541;53.230;10.518;2023-05-07T14:23:53;16.80;99.90
7002;DHT22;3541;53.230;10.518;2023-05-07T14:26:21;17.00;99.90
7002;DHT22;3541;53.230;10.518;2023-05-07T14:28:48;17.10;99.90
7002;DHT22;3541;53.230;10.518;2023-05-07T14:31:15;17.20;99.90
7002;DHT22;3541;53.230;10.518;2023-05-07T14:33:43;17.30;99.90
7002;DHT22;3541;53.230;10.518;2023-05-07T14:36:09;17.60;99.90
7002;DHT22;3541;53.230;10.518;2023-05-07T14:38:36;17.80;99.90
7002;DHT22;3541;53.230;10.518;2023-05-07T14:41:02;18.00;99.90
7002;DHT22;3541;53.230;10.518;2023-05-07T14:43:29;18.20;99.90
7002;DHT22;3541;53.230;10.518;2023-05-07T14:45:55;18.30;99.90
7002;DHT22;3541;53.230;10.518;2023-05-07T14:48:22;18.30;99.90
7002;DHT22;3541;53.230;10.518;2023-05-07T14:50:50;18.20;99.90
7002;DHT22;3541;53.230;10.518;2023-05-07T14:53:16;18.30;99.90
7002;DHT22;3541;53.230;10.518;2023-05-07T14:55:43;18.30;99.90
7002;DHT22;3541;53.230;10.518;2023-05-07T14:58:10;18.20;99.90
7002;DHT22;3541;53.230;10.518;2023-05-07T15:00:37;18.20;99.90
7002;DHT22;3541;53.230;10.518;2023-05-07T15:03:05;18.20;99.90
7002;DHT22;3541;53.230;10.518;2023-05-07T15:05:32;18.40;99.90
7002;DHT22;3541;53.230;10.518;2023-05-07T15:08:00;18.60;99.90
7002;DHT22;3541;53.230;10.518;2023-05-07T15:10:27;18.80;99.90
7002;DHT22;3541;53.230;10.518;2023-05-07T15:12:54;19.00;99.90
7002;DHT22;3541;53.230;10.518;2023-05-07T15:15:20;18.90;99.90
7002;DHT22;3541;53.230;10.518;2023-05-07T15:17:47;18.70;99.90
7002;DHT22;3541;53.230;10.518;2023-05-07T15:20:13;18.60;99.90
7002;DHT22;3541;53.230;10.518;2023-05-07T15:22:40;18.90;99.90
7002;DHT22;3541;53.230;10.518;2023-05-07T15:25:08;19.00;99.90
7002;DHT22;3541;53.230;10.518;2023-05-07T15:27:35;19.20;99.90
7002;DHT22;3541;53.230;10.518;2023-05-07T15:30:02;19.30;99.90
7002;DHT22;3541;53.230;10.518;2023-05-07T15:32:28;19.10;99.90
7002;DHT22;3541;53.230;10.518;2023-05-07T15:34:55;19.20;99.90
7002;DHT22;3541;53.230;10.518;2023-05-07T15:37:22;19.10;99.90
7002;DHT22;3541;53.230;10.518;2023-05-07T15:39:49;19.10;99.90
7002;DHT22;3541;53.230;10.518;2023-05-07T15:42:16;18.90;99.90
7002;DHT22;3541;53.230;10.518;2023-05-07T15:44:43;18.70;99.90
7002;DHT22;3541;53.230;10.518;2023-05-07T15:47:10;18.50;99.90
7002;DHT22;3541;53.230;10.518;2023-05-07T15:49:40;18.30;99.90
7002;DHT22;3541;53.230;10.518;2023-05-07T15:52:06;18.20;99.90
7002;DHT22;3541;53.230;10.518;2023-05-07T15:54:35;18.10;99.90